sensor_id;sensor_type;location;lat;lon;timestamp;noise_LAeq;noise_LA_min;noise_LA_max;noise_LA01;noise_LA95
57092;Laerm;42968;52.094;4.328;2023-02-01T00:00:00;59.31;39.92;77.42;;
57092;Laerm;42968;52.094;4.328;2023-02-01T00:02:25;53.19;39.58;69.10;;
57092;Laerm;42968;52.094;4.328;2023-02-01T00:04:51;54.70;41.06;68.71;;
57092;Laerm;42968;52.094;4.328;2023-02-01T00:07:16;54.72;39.08;73.28;;
57092;Laerm;42968;52.094;4.328;2023-02-01T00:09:42;52.18;40.23;74.49;;
57092;Laerm;42968;52.094;4.328;2023-02-01T00:12:07;50.71;39.89;71.55;;
57092;Laerm;42968;52.094;4.328;2023-02-01T00:14:32;54.75;39.21;74.34;;
57092;Laerm;42968;52.094;4.328;2023-02-01T00:17:03;59.18;42.42;74.44;;
57092;Laerm;42968;52.094;4.328;2023-02-01T00:19:29;54.79;40.89;72.26;;
57092;Laerm;42968;52.094;4.328;2023-02-01T00:21:54;52.50;40.71;71.12;;
57092;Laerm;42968;52.094;4.328;2023-02-01T00:24:19;55.44;40.43;75.70;;
57092;Laerm;42968;52.094;4.328;2023-02-01T00:26:45;57.31;39.08;83.35;;
57092;Laerm;42968;52.094;4.328;2023-02-01T00:29:11;60.26;40.13;86.53;;
57092;Laerm;42968;52.094;4.328;2023-02-01T00:31:37;55.42;40.43;73.39;;
57092;Laerm;42968;52.094;4.328;2023-02-01T00:34:04;54.24;38.95;70.88;;
57092;Laerm;42968;52.094;4.328;2023-02-01T00:36:29;50.28;40.33;63.46;;
57092;Laerm;42968;52.094;4.328;2023-02-01T00:38:55;51.77;39.92;65.61;;
57092;Laerm;42968;52.094;4.328;2023-02-01T00:41:20;45.13;39.21;66.28;;
57092;Laerm;42968;52.094;4.328;2023-02-01T00:43:47;53.57;39.92;69.94;;
57092;Laerm;42968;52.094;4.328;2023-02-01T00:46:13;56.11;41.48;73.19;;
57092;Laerm;42968;52.094;4.328;2023-02-01T00:48:38;58.51;39.58;73.15;;
57092;Laerm;42968;52.094;4.328;2023-02-01T00:51:23;61.71;43.68;80.37;;
57092;Laerm;42968;52.094;4.328;2023-02-01T00:53:49;50.11;40.23;70.56;;
57092;Laerm;42968;52.094;4.328;2023-02-01T00:56:14;58.56;40.89;74.25;;
57092;Laerm;42968;52.094;4.328;2023-02-01T00:58:40;50.19;39.21;70.17;;
57092;Laerm;42968;52.094;4.328;2023-02-01T01:01:07;57.61;40.62;79.88;;
57092;Laerm;42968;52.094;4.328;2023-02-01T01:03:34;54.32;41.30;76.06;;
57092;Laerm;42968;52.094;4.328;2023-02-01T01:06:00;56.47;41.89;73.70;;
57092;Laerm;42968;52.094;4.328;2023-02-01T01:08:26;58.10;43.14;79.47;;
57092;Laerm;42968;52.094;4.328;2023-02-01T01:10:51;57.25;40.98;72.72;;
57092;Laerm;42968;52.094;4.328;2023-02-01T01:13:16;53.81;41.68;81.98;;
57092;Laerm;42968;52.094;4.328;2023-02-01T01:15:42;50.85;39.92;73.54;;
57092;Laerm;42968;52.094;4.328;2023-02-01T01:18:07;53.64;40.43;74.17;;
57092;Laerm;42968;52.094;4.328;2023-02-01T01:20:38;55.79;41.03;80.76;;
57092;Laerm;42968;52.094;4.328;2023-02-01T01:23:03;53.82;39.46;69.58;;
57092;Laerm;42968;52.094;4.328;2023-02-01T01:25:29;51.36;40.18;78.63;;
57092;Laerm;42968;52.094;4.328;2023-02-01T01:27:54;55.33;40.33;68.74;;
57092;Laerm;42968;52.094;4.328;2023-02-01T01:30:19;58.52;40.80;75.96;;
57092;Laerm;42968;52.094;4.328;2023-02-01T01:32:45;53.01;40.13;69.16;;
57092;Laerm;42968;52.094;4.328;2023-02-01T01:35:10;46.29;38.81;69.49;;
57092;Laerm;42968;52.094;4.328;2023-02-01T01:37:35;50.98;40.23;71.25;;
57092;Laerm;42968;52.094;4.328;2023-02-01T01:40:02;55.51;41.61;70.25;;
57092;Laerm;42968;52.094;4.328;2023-02-01T01:42:27;48.43;40.62;69.58;;
57092;Laerm;42968;52.094;4.328;2023-02-01T01:45:18;56.98;40.43;80.37;;
57092;Laerm;42968;52.094;4.328;2023-02-01T01:47:46;55.35;40.53;79.74;;
57092;Laerm;42968;52.094;4.328;2023-02-01T01:50:15;50.47;39.81;72.18;;
57092;Laerm;42968;52.094;4.328;2023-02-01T01:52:42;55.44;39.46;78.25;;
57092;Laerm;42968;52.094;4.328;2023-02-01T01:55:09;54.24;40.03;76.21;;
57092;Laerm;42968;52.094;4.328;2023-02-01T01:57:39;52.51;42.16;71.64;;
57092;Laerm;42968;52.094;4.328;2023-02-01T02:00:11;54.66;40.80;71.80;;
57092;Laerm;42968;52.094;4.328;2023-02-01T02:02:37;55.99;41.38;83.45;;
57092;Laerm;42968;52.094;4.328;2023-02-01T02:05:03;48.50;38.52;72.79;;
57092;Laerm;42968;52.094;4.328;2023-02-01T02:07:34;54.28;40.03;72.87;;
57092;Laerm;42968;52.094;4.328;2023-02-01T02:10:00;54.92;41.22;81.72;;
57092;Laerm;42968;52.094;4.328;2023-02-01T02:12:26;58.30;42.35;73.55;;
57092;Laerm;42968;52.094;4.328;2023-02-01T02:14:51;53.58;39.92;72.15;;
57092;Laerm;42968;52.094;4.328;2023-02-01T02:35:51;54.63;40.33;74.93;;
57092;Laerm;42968;52.094;4.328;2023-02-01T02:38:30;51.96;41.30;68.56;;
57092;Laerm;42968;52.094;4.328;2023-02-01T02:43:31;56.40;42.03;84.86;;
57092;Laerm;42968;52.094;4.328;2023-02-01T02:46:21;54.90;40.89;69.03;;
57092;Laerm;42968;52.094;4.328;2023-02-01T02:49:11;57.04;42.09;77.57;;
57092;Laerm;42968;52.094;4.328;2023-02-01T02:51:40;58.82;41.53;78.37;;
57092;Laerm;42968;52.094;4.328;2023-02-01T02:54:30;60.65;40.43;84.73;;
57092;Laerm;42968;52.094;4.328;2023-02-01T02:57:18;57.12;39.81;81.15;;
57092;Laerm;42968;52.094;4.328;2023-02-01T03:00:04;57.58;41.96;77.23;;
57092;Laerm;42968;52.094;4.328;2023-02-01T03:02:48;58.20;41.46;79.36;;
57092;Laerm;42968;52.094;4.328;2023-02-01T03:05:40;59.94;41.06;85.20;;
57092;Laerm;42968;52.094;4.328;2023-02-01T03:08:16;50.85;40.98;74.90;;
57092;Laerm;42968;52.094;4.328;2023-02-01T03:18:54;56.22;41.89;81.51;;
57092;Laerm;42968;52.094;4.328;2023-02-01T03:21:24;56.53;41.61;71.53;;
57092;Laerm;42968;52.094;4.328;2023-02-01T03:23:50;59.11;40.98;82.29;;
57092;Laerm;42968;52.094;4.328;2023-02-01T03:26:17;59.14;42.53;78.30;;
57092;Laerm;42968;52.094;4.328;2023-02-01T03:28:49;51.22;40.98;73.85;;
57092;Laerm;42968;52.094;4.328;2023-02-01T03:31:17;55.00;40.89;73.49;;
57092;Laerm;42968;52.094;4.328;2023-02-01T03:33:43;53.19;40.71;76.04;;
57092;Laerm;42968;52.094;4.328;2023-02-01T03:38:40;54.82;42.03;70.67;;
57092;Laerm;42968;52.094;4.328;2023-02-01T03:43:43;54.82;40.03;84.83;;
57092;Laerm;42968;52.094;4.328;2023-02-01T03:46:14;63.85;41.96;91.08;;
57092;Laerm;42968;52.094;4.328;2023-02-01T03:48:42;56.32;42.53;80.36;;
57092;Laerm;42968;52.094;4.328;2023-02-01T03:51:09;63.05;43.29;82.89;;
57092;Laerm;42968;52.094;4.328;2023-02-01T03:53:35;58.50;41.30;80.92;;
57092;Laerm;42968;52.094;4.328;2023-02-01T03:56:02;60.44;44.15;78.05;;
57092;Laerm;42968;52.094;4.328;2023-02-01T03:58:27;57.76;41.89;78.67;;
57092;Laerm;42968;52.094;4.328;2023-02-01T04:00:53;58.96;42.41;75.85;;
57092;Laerm;42968;52.094;4.328;2023-02-01T04:03:19;56.29;42.65;75.44;;
57092;Laerm;42968;52.094;4.328;2023-02-01T04:05:44;58.17;44.54;82.28;;
57092;Laerm;42968;52.094;4.328;2023-02-01T04:08:09;55.27;42.41;72.10;;
57092;Laerm;42968;52.094;4.328;2023-02-01T04:10:34;56.55;43.19;72.55;;
57092;Laerm;42968;52.094;4.328;2023-02-01T04:13:00;61.60;43.54;82.19;;
57092;Laerm;42968;52.094;4.328;2023-02-01T04:15:25;58.89;40.98;74.12;;
57092;Laerm;42968;52.094;4.328;2023-02-01T04:17:50;63.14;44.03;78.95;;
57092;Laerm;42968;52.094;4.328;2023-02-01T04:20:16;61.29;43.19;76.20;;
57092;Laerm;42968;52.094;4.328;2023-02-01T04:22:41;62.32;43.86;76.27;;
57092;Laerm;42968;52.094;4.328;2023-02-01T04:25:06;62.35;43.58;74.73;;
57092;Laerm;42968;52.094;4.328;2023-02-01T04:27:32;61.63;42.82;75.57;;
57092;Laerm;42968;52.094;4.328;2023-02-01T04:29:58;62.47;43.29;75.95;;
57092;Laerm;42968;52.094;4.328;2023-02-01T04:32:23;63.22;43.72;82.58;;
57092;Laerm;42968;52.094;4.328;2023-02-01T04:34:49;62.84;47.26;76.47;;
57092;Laerm;42968;52.094;4.328;2023-02-01T04:37:14;62.68;45.07;74.72;;
57092;Laerm;42968;52.094;4.328;2023-02-01T04:39:39;63.06;45.75;75.39;;
57092;Laerm;42968;52.094;4.328;2023-02-01T04:42:05;59.39;44.31;75.86;;
57092;Laerm;42968;52.094;4.328;2023-02-01T04:44:30;62.48;43.99;80.09;;
57092;Laerm;42968;52.094;4.328;2023-02-01T04:46:55;65.82;45.30;82.78;;
57092;Laerm;42968;52.094;4.328;2023-02-01T04:49:21;63.25;45.04;82.72;;
57092;Laerm;42968;52.094;4.328;2023-02-01T04:51:46;59.22;43.90;74.40;;
57092;Laerm;42968;52.094;4.328;2023-02-01T04:54:12;66.22;46.35;85.30;;
57092;Laerm;42968;52.094;4.328;2023-02-01T04:56:37;63.14;46.23;78.91;;
57092;Laerm;42968;52.094;4.328;2023-02-01T04:59:03;64.08;48.32;79.04;;
57092;Laerm;42968;52.094;4.328;2023-02-01T05:01:29;66.35;45.20;80.28;;
57092;Laerm;42968;52.094;4.328;2023-02-01T05:03:54;62.87;46.64;76.76;;
57092;Laerm;42968;52.094;4.328;2023-02-01T05:06:20;63.31;44.35;79.39;;
57092;Laerm;42968;52.094;4.328;2023-02-01T05:08:45;64.89;48.52;81.88;;
57092;Laerm;42968;52.094;4.328;2023-02-01T05:11:11;65.12;47.65;79.34;;
57092;Laerm;42968;52.094;4.328;2023-02-01T05:13:56;65.66;48.32;74.60;;
57092;Laerm;42968;52.094;4.328;2023-02-01T05:16:21;65.23;48.58;76.05;;
57092;Laerm;42968;52.094;4.328;2023-02-01T05:18:46;65.41;46.30;76.72;;
57092;Laerm;42968;52.094;4.328;2023-02-01T05:21:12;66.11;47.08;76.38;;
57092;Laerm;42968;52.094;4.328;2023-02-01T05:23:37;61.62;44.47;73.84;;
57092;Laerm;42968;52.094;4.328;2023-02-01T05:26:22;66.01;48.77;77.15;;
57092;Laerm;42968;52.094;4.328;2023-02-01T05:28:48;65.65;52.44;79.09;;
57092;Laerm;42968;52.094;4.328;2023-02-01T05:31:13;68.55;50.03;84.35;;
57092;Laerm;42968;52.094;4.328;2023-02-01T05:33:38;65.95;47.86;76.82;;
57092;Laerm;42968;52.094;4.328;2023-02-01T05:36:03;67.96;56.07;76.46;;
57092;Laerm;42968;52.094;4.328;2023-02-01T05:38:29;68.32;50.03;80.92;;
57092;Laerm;42968;52.094;4.328;2023-02-01T05:40:57;66.29;48.26;78.04;;
57092;Laerm;42968;52.094;4.328;2023-02-01T05:43:22;68.66;55.29;80.69;;
57092;Laerm;42968;52.094;4.328;2023-02-01T05:45:47;68.04;51.64;76.71;;
57092;Laerm;42968;52.094;4.328;2023-02-01T05:48:13;67.75;46.97;76.52;;
57092;Laerm;42968;52.094;4.328;2023-02-01T05:50:38;69.94;50.02;79.84;;
57092;Laerm;42968;52.094;4.328;2023-02-01T05:53:04;66.93;50.06;77.31;;
57092;Laerm;42968;52.094;4.328;2023-02-01T05:55:29;68.08;48.90;77.22;;
57092;Laerm;42968;52.094;4.328;2023-02-01T05:57:54;69.72;54.21;92.25;;
57092;Laerm;42968;52.094;4.328;2023-02-01T06:00:20;67.86;49.14;82.04;;
57092;Laerm;42968;52.094;4.328;2023-02-01T06:02:45;66.65;51.34;76.51;;
57092;Laerm;42968;52.094;4.328;2023-02-01T06:05:10;69.74;50.90;80.73;;
57092;Laerm;42968;52.094;4.328;2023-02-01T06:07:35;69.67;52.45;81.75;;
57092;Laerm;42968;52.094;4.328;2023-02-01T06:10:01;68.12;49.33;79.86;;
57092;Laerm;42968;52.094;4.328;2023-02-01T06:12:26;68.75;49.71;79.66;;
57092;Laerm;42968;52.094;4.328;2023-02-01T06:14:53;68.50;51.58;80.48;;
57092;Laerm;42968;52.094;4.328;2023-02-01T06:17:18;68.52;50.06;78.52;;
57092;Laerm;42968;52.094;4.328;2023-02-01T06:19:43;69.78;51.91;82.34;;
57092;Laerm;42968;52.094;4.328;2023-02-01T06:22:09;66.67;50.21;80.21;;
57092;Laerm;42968;52.094;4.328;2023-02-01T06:24:35;69.71;51.46;81.71;;
57092;Laerm;42968;52.094;4.328;2023-02-01T06:27:00;68.18;52.51;82.58;;
57092;Laerm;42968;52.094;4.328;2023-02-01T06:29:25;70.73;53.71;83.38;;
57092;Laerm;42968;52.094;4.328;2023-02-01T06:31:51;68.73;53.81;78.93;;
57092;Laerm;42968;52.094;4.328;2023-02-01T06:34:17;69.57;54.22;79.41;;
57092;Laerm;42968;52.094;4.328;2023-02-01T06:36:42;69.59;56.74;84.75;;
57092;Laerm;42968;52.094;4.328;2023-02-01T06:39:08;68.58;54.30;82.50;;
57092;Laerm;42968;52.094;4.328;2023-02-01T06:41:33;69.87;50.79;82.82;;
57092;Laerm;42968;52.094;4.328;2023-02-01T06:43:59;70.31;57.82;80.75;;
57092;Laerm;42968;52.094;4.328;2023-02-01T06:46:25;70.54;51.42;81.60;;
57092;Laerm;42968;52.094;4.328;2023-02-01T06:48:50;68.90;50.64;78.32;;
57092;Laerm;42968;52.094;4.328;2023-02-01T06:51:18;69.75;52.72;77.34;;
57092;Laerm;42968;52.094;4.328;2023-02-01T06:53:44;70.81;51.31;91.20;;
57092;Laerm;42968;52.094;4.328;2023-02-01T06:56:09;70.05;49.60;84.09;;
57092;Laerm;42968;52.094;4.328;2023-02-01T06:58:35;69.13;56.44;76.51;;
57092;Laerm;42968;52.094;4.328;2023-02-01T07:01:04;68.51;55.30;78.62;;
57092;Laerm;42968;52.094;4.328;2023-02-01T07:03:30;67.94;53.21;79.97;;
57092;Laerm;42968;52.094;4.328;2023-02-01T07:05:56;69.11;51.19;80.95;;
57092;Laerm;42968;52.094;4.328;2023-02-01T07:08:23;70.26;52.29;80.79;;
57092;Laerm;42968;52.094;4.328;2023-02-01T07:10:48;69.97;57.26;82.75;;
57092;Laerm;42968;52.094;4.328;2023-02-01T07:13:14;70.21;53.56;81.06;;
57092;Laerm;42968;52.094;4.328;2023-02-01T07:15:39;69.19;53.44;80.19;;
57092;Laerm;42968;52.094;4.328;2023-02-01T07:18:04;70.51;52.71;86.96;;
57092;Laerm;42968;52.094;4.328;2023-02-01T07:20:29;69.48;55.55;75.75;;
57092;Laerm;42968;52.094;4.328;2023-02-01T07:22:56;69.75;52.68;85.54;;
57092;Laerm;42968;52.094;4.328;2023-02-01T07:25:21;70.09;53.57;78.18;;
57092;Laerm;42968;52.094;4.328;2023-02-01T07:27:47;70.51;50.89;79.12;;
57092;Laerm;42968;52.094;4.328;2023-02-01T07:30:12;70.96;54.77;80.96;;
57092;Laerm;42968;52.094;4.328;2023-02-01T07:32:37;71.67;51.19;81.75;;
57092;Laerm;42968;52.094;4.328;2023-02-01T07:35:03;70.13;51.43;77.69;;
57092;Laerm;42968;52.094;4.328;2023-02-01T07:37:28;70.01;51.18;83.09;;
57092;Laerm;42968;52.094;4.328;2023-02-01T07:39:54;70.33;52.79;78.73;;
57092;Laerm;42968;52.094;4.328;2023-02-01T07:42:20;70.23;54.75;78.91;;
57092;Laerm;42968;52.094;4.328;2023-02-01T07:44:45;69.12;58.21;84.01;;
57092;Laerm;42968;52.094;4.328;2023-02-01T07:47:10;68.98;51.83;78.96;;
57092;Laerm;42968;52.094;4.328;2023-02-01T07:49:36;71.66;55.12;80.26;;
57092;Laerm;42968;52.094;4.328;2023-02-01T07:52:01;69.59;54.42;78.40;;
57092;Laerm;42968;52.094;4.328;2023-02-01T07:54:26;69.73;55.58;79.30;;
57092;Laerm;42968;52.094;4.328;2023-02-01T07:56:52;70.32;56.11;78.94;;
57092;Laerm;42968;52.094;4.328;2023-02-01T07:59:17;69.72;58.26;79.33;;
57092;Laerm;42968;52.094;4.328;2023-02-01T08:01:42;70.22;59.13;81.15;;
57092;Laerm;42968;52.094;4.328;2023-02-01T08:04:09;70.48;55.40;82.55;;
57092;Laerm;42968;52.094;4.328;2023-02-01T08:06:35;70.24;54.06;79.57;;
57092;Laerm;42968;52.094;4.328;2023-02-01T08:09:01;71.07;51.28;80.91;;
57092;Laerm;42968;52.094;4.328;2023-02-01T08:11:26;70.73;50.68;86.42;;
57092;Laerm;42968;52.094;4.328;2023-02-01T08:13:52;69.65;59.03;81.80;;
57092;Laerm;42968;52.094;4.328;2023-02-01T08:16:18;70.18;49.70;80.80;;
57092;Laerm;42968;52.094;4.328;2023-02-01T08:18:44;69.24;51.97;80.14;;
57092;Laerm;42968;52.094;4.328;2023-02-01T08:23:38;69.64;50.92;81.82;;
57092;Laerm;42968;52.094;4.328;2023-02-01T08:26:14;70.62;52.42;83.11;;
57092;Laerm;42968;52.094;4.328;2023-02-01T08:28:40;68.12;51.56;76.52;;
57092;Laerm;42968;52.094;4.328;2023-02-01T08:31:10;71.09;53.58;83.13;;
57092;Laerm;42968;52.094;4.328;2023-02-01T08:33:35;68.33;54.21;77.12;;
57092;Laerm;42968;52.094;4.328;2023-02-01T08:36:02;69.40;50.69;79.66;;
57092;Laerm;42968;52.094;4.328;2023-02-01T08:38:28;68.79;50.86;77.60;;
57092;Laerm;42968;52.094;4.328;2023-02-01T08:40:53;67.72;52.77;77.38;;
57092;Laerm;42968;52.094;4.328;2023-02-01T08:43:18;68.57;52.80;80.00;;
57092;Laerm;42968;52.094;4.328;2023-02-01T08:45:44;70.08;51.42;79.02;;
57092;Laerm;42968;52.094;4.328;2023-02-01T08:48:09;69.90;52.28;78.37;;
57092;Laerm;42968;52.094;4.328;2023-02-01T08:50:34;69.30;55.07;81.14;;
57092;Laerm;42968;52.094;4.328;2023-02-01T08:53:00;70.12;50.38;77.45;;
57092;Laerm;42968;52.094;4.328;2023-02-01T08:55:25;69.62;50.38;81.37;;
57092;Laerm;42968;52.094;4.328;2023-02-01T08:57:51;68.33;54.62;76.95;;
57092;Laerm;42968;52.094;4.328;2023-02-01T09:00:17;70.50;51.55;79.39;;
57092;Laerm;42968;52.094;4.328;2023-02-01T09:02:42;69.76;50.82;82.29;;
57092;Laerm;42968;52.094;4.328;2023-02-01T09:05:08;76.96;50.53;98.72;;
57092;Laerm;42968;52.094;4.328;2023-02-01T09:07:33;69.09;52.69;77.86;;
57092;Laerm;42968;52.094;4.328;2023-02-01T09:09:59;69.44;54.17;77.68;;
57092;Laerm;42968;52.094;4.328;2023-02-01T09:12:28;67.39;52.60;78.09;;
57092;Laerm;42968;52.094;4.328;2023-02-01T09:14:54;68.83;53.89;83.68;;
57092;Laerm;42968;52.094;4.328;2023-02-01T09:17:20;70.14;53.27;80.99;;
57092;Laerm;42968;52.094;4.328;2023-02-01T09:19:45;69.33;48.90;80.84;;
57092;Laerm;42968;52.094;4.328;2023-02-01T09:22:10;68.22;49.56;80.25;;
57092;Laerm;42968;52.094;4.328;2023-02-01T09:24:35;69.41;53.04;80.70;;
57092;Laerm;42968;52.094;4.328;2023-02-01T09:27:01;69.44;51.53;82.94;;
57092;Laerm;42968;52.094;4.328;2023-02-01T09:29:26;68.17;51.32;78.63;;
57092;Laerm;42968;52.094;4.328;2023-02-01T09:31:51;70.27;53.05;84.81;;
57092;Laerm;42968;52.094;4.328;2023-02-01T09:34:17;67.41;51.51;79.62;;
57092;Laerm;42968;52.094;4.328;2023-02-01T09:36:43;69.91;50.47;82.52;;
57092;Laerm;42968;52.094;4.328;2023-02-01T09:39:08;68.40;53.12;78.53;;
57092;Laerm;42968;52.094;4.328;2023-02-01T09:46:26;70.21;52.51;80.17;;
57092;Laerm;42968;52.094;4.328;2023-02-01T09:49:00;69.88;57.12;81.78;;
57092;Laerm;42968;52.094;4.328;2023-02-01T09:51:31;68.47;51.67;80.25;;
57092;Laerm;42968;52.094;4.328;2023-02-01T09:54:02;70.78;58.62;79.98;;
57092;Laerm;42968;52.094;4.328;2023-02-01T09:57:16;69.27;51.97;84.04;;
57092;Laerm;42968;52.094;4.328;2023-02-01T10:01:44;69.69;55.13;80.51;;
57092;Laerm;42968;52.094;4.328;2023-02-01T10:04:10;69.57;50.77;80.97;;
57092;Laerm;42968;52.094;4.328;2023-02-01T10:14:52;69.66;52.41;87.16;;
57092;Laerm;42968;52.094;4.328;2023-02-01T10:22:38;69.75;51.93;78.96;;
57092;Laerm;42968;52.094;4.328;2023-02-01T10:27:45;67.14;51.22;79.50;;
57092;Laerm;42968;52.094;4.328;2023-02-01T10:30:17;69.13;55.10;80.54;;
57092;Laerm;42968;52.094;4.328;2023-02-01T10:32:43;69.09;56.99;78.14;;
57092;Laerm;42968;52.094;4.328;2023-02-01T10:35:13;67.40;50.27;78.35;;
57092;Laerm;42968;52.094;4.328;2023-02-01T10:37:40;70.79;51.95;91.25;;
57092;Laerm;42968;52.094;4.328;2023-02-01T10:40:12;68.43;50.77;78.11;;
57092;Laerm;42968;52.094;4.328;2023-02-01T10:42:40;68.48;54.10;80.26;;
57092;Laerm;42968;52.094;4.328;2023-02-01T10:45:06;69.36;57.08;79.15;;
57092;Laerm;42968;52.094;4.328;2023-02-01T10:47:31;68.55;54.51;78.35;;
57092;Laerm;42968;52.094;4.328;2023-02-01T10:58:03;71.68;53.40;87.37;;
57092;Laerm;42968;52.094;4.328;2023-02-01T11:00:49;70.75;53.48;86.89;;
57092;Laerm;42968;52.094;4.328;2023-02-01T11:03:34;69.63;53.21;89.80;;
57092;Laerm;42968;52.094;4.328;2023-02-01T11:06:02;69.88;55.49;88.72;;
57092;Laerm;42968;52.094;4.328;2023-02-01T11:08:29;68.99;53.90;80.74;;
57092;Laerm;42968;52.094;4.328;2023-02-01T11:11:02;70.80;56.62;89.12;;
57092;Laerm;42968;52.094;4.328;2023-02-01T11:13:31;71.18;55.66;83.16;;
57092;Laerm;42968;52.094;4.328;2023-02-01T11:16:00;71.98;57.57;91.28;;
57092;Laerm;42968;52.094;4.328;2023-02-01T11:18:27;68.20;53.16;81.09;;
57092;Laerm;42968;52.094;4.328;2023-02-01T11:20:53;70.71;54.18;86.23;;
57092;Laerm;42968;52.094;4.328;2023-02-01T11:23:21;69.93;53.61;82.43;;
57092;Laerm;42968;52.094;4.328;2023-02-01T11:25:57;70.47;50.53;81.52;;
57092;Laerm;42968;52.094;4.328;2023-02-01T11:28:27;70.35;53.79;78.18;;
57092;Laerm;42968;52.094;4.328;2023-02-01T11:30:55;69.90;53.83;82.82;;
57092;Laerm;42968;52.094;4.328;2023-02-01T11:33:25;67.34;54.17;78.75;;
57092;Laerm;42968;52.094;4.328;2023-02-01T11:35:54;71.02;56.42;90.77;;
57092;Laerm;42968;52.094;4.328;2023-02-01T11:38:21;69.63;56.87;80.01;;
57092;Laerm;42968;52.094;4.328;2023-02-01T11:40:47;70.13;56.88;84.48;;
57092;Laerm;42968;52.094;4.328;2023-02-01T11:45:37;70.78;58.62;84.62;;
57092;Laerm;42968;52.094;4.328;2023-02-01T11:48:07;71.45;58.38;85.73;;
57092;Laerm;42968;52.094;4.328;2023-02-01T11:55:56;70.44;53.90;86.11;;
57092;Laerm;42968;52.094;4.328;2023-02-01T12:03:45;69.55;51.83;88.09;;
57092;Laerm;42968;52.094;4.328;2023-02-01T12:07:04;70.38;53.15;83.71;;
57092;Laerm;42968;52.094;4.328;2023-02-01T12:11:58;69.85;58.93;79.33;;
57092;Laerm;42968;52.094;4.328;2023-02-01T12:22:04;69.21;51.80;81.46;;
57092;Laerm;42968;52.094;4.328;2023-02-01T12:27:08;70.44;52.81;82.95;;
57092;Laerm;42968;52.094;4.328;2023-02-01T12:42:38;70.63;52.28;78.76;;
57092;Laerm;42968;52.094;4.328;2023-02-01T12:47:41;68.69;51.56;78.48;;
57092;Laerm;42968;52.094;4.328;2023-02-01T12:50:15;71.22;51.61;87.77;;
57092;Laerm;42968;52.094;4.328;2023-02-01T12:52:44;72.20;52.95;83.33;;
57092;Laerm;42968;52.094;4.328;2023-02-01T12:57:43;71.80;57.50;86.16;;
57092;Laerm;42968;52.094;4.328;2023-02-01T13:07:43;70.49;57.53;86.78;;
57092;Laerm;42968;52.094;4.328;2023-02-01T13:12:56;69.63;52.51;83.59;;
57092;Laerm;42968;52.094;4.328;2023-02-01T13:15:27;71.31;59.24;87.75;;
57092;Laerm;42968;52.094;4.328;2023-02-01T13:17:54;70.43;54.67;82.66;;
57092;Laerm;42968;52.094;4.328;2023-02-01T13:23:05;71.87;55.20;85.91;;
57092;Laerm;42968;52.094;4.328;2023-02-01T13:25:35;68.90;51.30;78.20;;
57092;Laerm;42968;52.094;4.328;2023-02-01T13:28:07;70.48;54.59;83.82;;
57092;Laerm;42968;52.094;4.328;2023-02-01T13:30:43;69.01;51.42;79.36;;
57092;Laerm;42968;52.094;4.328;2023-02-01T13:40:44;71.65;55.48;85.84;;
57092;Laerm;42968;52.094;4.328;2023-02-01T13:45:42;69.46;52.67;81.82;;
57092;Laerm;42968;52.094;4.328;2023-02-01T13:48:15;70.91;52.67;90.53;;
57092;Laerm;42968;52.094;4.328;2023-02-01T13:50:42;69.89;50.62;79.72;;
57092;Laerm;42968;52.094;4.328;2023-02-01T13:56:38;69.58;55.82;81.55;;
57092;Laerm;42968;52.094;4.328;2023-02-01T14:03:44;69.77;51.89;78.98;;
57092;Laerm;42968;52.094;4.328;2023-02-01T14:06:55;68.83;53.63;80.61;;
57092;Laerm;42968;52.094;4.328;2023-02-01T14:09:09;69.60;56.26;78.17;;
57092;Laerm;42968;52.094;4.328;2023-02-01T14:14:37;71.12;50.30;80.73;;
57092;Laerm;42968;52.094;4.328;2023-02-01T14:21:49;69.70;53.34;78.93;;
57092;Laerm;42968;52.094;4.328;2023-02-01T14:26:48;68.86;51.41;77.14;;
57092;Laerm;42968;52.094;4.328;2023-02-01T14:34:18;69.97;52.40;81.39;;
57092;Laerm;42968;52.094;4.328;2023-02-01T14:36:45;72.13;51.46;86.16;;
57092;Laerm;42968;52.094;4.328;2023-02-01T14:39:47;70.55;55.75;80.26;;
57092;Laerm;42968;52.094;4.328;2023-02-01T14:44:42;70.22;51.62;77.98;;
57092;Laerm;42968;52.094;4.328;2023-02-01T14:47:09;70.07;56.91;86.70;;
57092;Laerm;42968;52.094;4.328;2023-02-01T14:49:39;69.03;56.97;75.33;;
57092;Laerm;42968;52.094;4.328;2023-02-01T14:52:13;69.84;59.21;75.35;;
57092;Laerm;42968;52.094;4.328;2023-02-01T14:54:40;70.41;54.12;78.37;;
57092;Laerm;42968;52.094;4.328;2023-02-01T14:57:08;69.61;52.63;75.66;;
57092;Laerm;42968;52.094;4.328;2023-02-01T14:59:37;70.86;50.39;78.50;;
57092;Laerm;42968;52.094;4.328;2023-02-01T15:02:07;69.60;53.20;78.10;;
57092;Laerm;42968;52.094;4.328;2023-02-01T15:04:42;69.65;52.07;76.63;;
57092;Laerm;42968;52.094;4.328;2023-02-01T15:07:09;70.81;56.01;79.93;;
57092;Laerm;42968;52.094;4.328;2023-02-01T15:09:43;70.44;55.67;80.04;;
57092;Laerm;42968;52.094;4.328;2023-02-01T15:14:45;69.93;57.88;79.72;;
57092;Laerm;42968;52.094;4.328;2023-02-01T15:17:26;69.43;54.69;77.19;;
57092;Laerm;42968;52.094;4.328;2023-02-01T15:19:56;71.02;53.41;78.67;;
57092;Laerm;42968;52.094;4.328;2023-02-01T15:22:21;69.09;49.84;78.12;;
57092;Laerm;42968;52.094;4.328;2023-02-01T15:24:57;70.31;54.01;76.67;;
57092;Laerm;42968;52.094;4.328;2023-02-01T15:27:22;69.26;50.27;80.09;;
57092;Laerm;42968;52.094;4.328;2023-02-01T15:29:48;69.87;50.79;77.29;;
57092;Laerm;42968;52.094;4.328;2023-02-01T15:32:29;70.31;50.72;80.39;;
57092;Laerm;42968;52.094;4.328;2023-02-01T15:34:56;68.68;53.45;75.66;;
57092;Laerm;42968;52.094;4.328;2023-02-01T15:37:21;70.28;52.37;83.54;;
57092;Laerm;42968;52.094;4.328;2023-02-01T15:40:03;69.43;59.06;77.43;;
57092;Laerm;42968;52.094;4.328;2023-02-01T15:42:28;69.34;57.44;77.54;;
57092;Laerm;42968;52.094;4.328;2023-02-01T15:44:54;69.43;55.50;77.66;;
57092;Laerm;42968;52.094;4.328;2023-02-01T15:47:20;70.41;53.24;78.47;;
57092;Laerm;42968;52.094;4.328;2023-02-01T15:49:52;69.93;54.12;76.45;;
57092;Laerm;42968;52.094;4.328;2023-02-01T15:52:35;69.98;53.07;78.64;;
57092;Laerm;42968;52.094;4.328;2023-02-01T15:55:02;68.93;51.87;75.91;;
57092;Laerm;42968;52.094;4.328;2023-02-01T15:57:30;70.31;56.48;77.55;;
57092;Laerm;42968;52.094;4.328;2023-02-01T15:59:57;70.93;50.72;84.30;;
57092;Laerm;42968;52.094;4.328;2023-02-01T16:02:36;70.23;51.88;80.43;;
57092;Laerm;42968;52.094;4.328;2023-02-01T16:05:04;70.57;53.31;80.49;;
57092;Laerm;42968;52.094;4.328;2023-02-01T16:07:31;69.49;52.21;77.26;;
57092;Laerm;42968;52.094;4.328;2023-02-01T16:09:57;71.49;52.68;80.32;;
57092;Laerm;42968;52.094;4.328;2023-02-01T16:14:49;69.81;52.97;78.78;;
57092;Laerm;42968;52.094;4.328;2023-02-01T16:17:14;70.88;54.61;83.07;;
57092;Laerm;42968;52.094;4.328;2023-02-01T16:19:40;70.55;48.36;79.48;;
57092;Laerm;42968;52.094;4.328;2023-02-01T16:22:06;70.66;52.91;79.13;;
57092;Laerm;42968;52.094;4.328;2023-02-01T16:24:31;69.95;50.28;78.37;;
57092;Laerm;42968;52.094;4.328;2023-02-01T16:26:58;69.10;51.70;76.66;;
57092;Laerm;42968;52.094;4.328;2023-02-01T16:29:24;69.66;53.50;77.34;;
57092;Laerm;42968;52.094;4.328;2023-02-01T16:31:49;67.97;51.13;76.96;;
57092;Laerm;42968;52.094;4.328;2023-02-01T16:34:15;68.03;52.92;77.54;;